Terminal Aerodrome Forecast
Issued by NWS Twin Cities, MN

Home | Current Version | Previous Version | Graphics & Text | Print | Product List | Glossary On
Versions: 1 2 3 4 5 6 7 8 9 10 11 12 13 14 15 16
000
FTUS43 KMPX 060526
TAFEAU
TAF
KEAU 060526Z 0606/0706 18007KT P6SM VCTS BKN050CB OVC150
     FM060800 18005KT 5SM TSRA BR SCT008 OVC020CB
      TEMPO 0608/0612 1SM +TSRA BR OVC008CB
     FM061800 29012G20KT 4SM TSRA BR SCT008 OVC015CB
     FM070000 35007KT P6SM BKN100
     FM070400 35005KT P6SM SKC=

USA.gov is the U.S. government's official web portal to all federal, state and local government web resources and services.